Time;durP1;ratioP1;P1;durP2;ratioP2;P2;SDS_P1;SDS_P2;PMS_P1;PMS_P2;Temp;Humidity;BMP_temperature;BMP_pressure;BME280_temperature;BME280_humidity;BME280_pressure;Samples;Min_cycle;Max_cycle;Signal;HPM_P1;HPM_P2
2022/04/10 00:00:48;;;;;;;5.88;2.13;;;4.30;1.00;;;;;;6133509;23;21647;-78
2022/04/10 00:03:15;;;;;;;9.23;3.10;;;4.20;1.00;;;;;;6129863;23;20862;-79
2022/04/10 00:05:48;;;;;;;5.20;2.45;;;4.20;1.00;;;;;;6126996;23;20239;-81
2022/04/10 00:08:19;;;;;;;3.90;2.08;;;4.20;1.00;;;;;;6141098;23;20207;-78
2022/04/10 00:10:51;;;;;;;5.55;2.97;;;4.20;1.00;;;;;;6131433;23;20219;-78
2022/04/10 00:13:20;;;;;;;4.72;2.10;;;4.20;1.00;;;;;;6127532;23;20223;-80
2022/04/10 00:15:50;;;;;;;6.30;3.15;;;4.10;1.00;;;;;;6105274;23;20262;-79
2022/04/10 00:18:20;;;;;;;3.65;2.55;;;4.10;1.00;;;;;;6154573;23;20207;-77
2022/04/10 00:20:50;;;;;;;3.72;2.80;;;4.10;1.00;;;;;;6133955;23;20221;-78
2022/04/10 00:23:21;;;;;;;4.90;2.45;;;4.10;1.00;;;;;;6130699;23;20202;-77
2022/04/10 00:26:00;;;;;;;6.00;3.05;;;4.10;1.00;;;;;;6149537;23;20406;-79
2022/04/10 00:28:31;;;;;;;5.43;2.60;;;4.10;1.00;;;;;;6144573;23;20310;-77
2022/04/10 00:31:00;;;;;;;5.47;3.25;;;4.20;1.00;;;;;;6132146;23;20219;-78
2022/04/10 00:33:28;;;;;;;6.50;2.92;;;4.10;1.00;;;;;;6135844;23;20216;-80
2022/04/10 00:35:58;;;;;;;5.10;3.45;;;4.10;1.00;;;;;;6101104;23;20209;-78
2022/04/10 00:38:28;;;;;;;9.48;8.05;;;4.00;1.00;;;;;;6104424;23;20216;-78
2022/04/10 00:41:20;;;;;;;5.13;3.53;;;4.00;1.00;;;;;;6103456;23;20196;-79
2022/04/10 00:44:09;;;;;;;3.88;2.97;;;4.00;1.00;;;;;;6096867;23;20276;-77
2022/04/10 00:46:39;;;;;;;6.93;3.10;;;4.00;1.00;;;;;;6075897;23;20211;-80
2022/04/10 00:49:09;;;;;;;5.28;2.83;;;4.00;1.00;;;;;;6125397;23;20216;-79
2022/04/10 00:51:51;;;;;;;;;;;;;;;;;;;;;
2022/04/10 00:54:21;;;;;;;6.10;3.75;;;4.10;1.00;;;;;;6105701;23;39449;-77
2022/04/10 00:56:50;;;;;;;6.63;3.30;;;4.10;1.00;;;;;;6096957;23;20300;-79
2022/04/10 00:59:20;;;;;;;5.35;3.63;;;4.20;1.00;;;;;;6107187;23;20212;-80
2022/04/10 01:01:51;;;;;;;6.15;3.20;;;4.20;1.00;;;;;;6099274;23;20204;-79
2022/04/10 01:04:21;;;;;;;4.68;3.97;;;4.20;1.00;;;;;;6109739;23;20200;-78
2022/04/10 01:06:50;;;;;;;7.63;4.15;;;4.20;1.00;;;;;;6147928;23;20212;-78
2022/04/10 01:09:21;;;;;;;7.15;4.10;;;4.20;1.00;;;;;;6148399;23;20252;-77
2022/04/10 01:11:55;;;;;;;4.72;3.92;;;4.10;1.00;;;;;;6146836;23;20203;-77
2022/04/10 01:14:30;;;;;;;9.98;3.80;;;4.00;1.00;;;;;;6150345;23;20270;-78
2022/04/10 01:17:00;;;;;;;4.88;4.35;;;4.00;1.00;;;;;;6129779;23;20263;-78
2022/04/10 01:19:28;;;;;;;5.05;3.60;;;3.90;1.00;;;;;;6128718;23;20239;-78
2022/04/10 01:22:09;;;;;;;7.30;3.90;;;3.90;1.00;;;;;;6114212;23;20208;-79
2022/04/10 01:24:49;;;;;;;7.85;3.70;;;3.90;1.00;;;;;;6106230;23;20216;-77
2022/04/10 01:27:29;;;;;;;6.45;3.95;;;3.80;1.00;;;;;;6102773;23;20264;-80
2022/04/10 01:30:01;;;;;;;5.45;4.07;;;3.80;1.00;;;;;;6113978;23;20206;-78
2022/04/10 01:32:31;;;;;;;6.53;4.70;;;3.90;1.00;;;;;;6140045;23;20219;-77
2022/04/10 01:35:17;;;;;;;6.30;4.00;;;3.90;1.00;;;;;;6102776;23;20241;-79
2022/04/10 01:37:50;;;;;;;5.38;4.13;;;3.90;1.00;;;;;;6098388;23;20212;-78
2022/04/10 01:40:20;;;;;;;7.30;4.20;;;3.90;1.00;;;;;;6102186;23;21038;-78
2022/04/10 01:42:51;;;;;;;9.38;4.35;;;4.00;1.00;;;;;;6119541;23;20218;-79
2022/04/10 01:45:30;;;;;;;6.15;4.50;;;4.10;1.00;;;;;;6132641;23;20227;-78
2022/04/10 01:47:59;;;;;;;6.70;4.18;;;4.10;1.00;;;;;;6094697;23;20203;-77
2022/04/10 01:50:31;;;;;;;5.35;3.78;;;4.10;1.00;;;;;;6125613;23;20220;-79
2022/04/10 01:53:40;;;;;;;9.35;4.95;;;4.10;1.00;;;;;;6114477;23;20204;-78
2022/04/10 01:56:12;;;;;;;7.28;3.92;;;4.10;1.00;;;;;;6114261;23;20215;-78
2022/04/10 01:58:41;;;;;;;9.30;4.03;;;4.10;1.00;;;;;;6143734;23;20215;-78
2022/04/10 02:01:17;;;;;;;5.88;4.07;;;4.00;1.00;;;;;;6139991;23;20208;-77
2022/04/10 02:06:37;;;;;;;7.95;4.53;;;4.00;1.00;;;;;;6134922;23;40713;-80
2022/04/10 02:09:10;;;;;;;6.13;4.53;;;3.90;1.00;;;;;;6111293;23;20218;-80
2022/04/10 02:11:40;;;;;;;7.20;3.72;;;3.90;1.00;;;;;;6129513;23;20215;-78
2022/04/10 02:14:09;;;;;;;6.78;4.00;;;3.80;1.00;;;;;;6116875;23;20211;-79
2022/04/10 02:16:39;;;;;;;6.97;3.80;;;3.80;1.00;;;;;;6101860;23;20308;-80
2022/04/10 02:19:11;;;;;;;6.00;4.88;;;3.70;1.00;;;;;;6099080;23;20212;-79
2022/04/10 02:21:41;;;;;;;6.90;4.10;;;3.70;1.00;;;;;;6116971;23;20212;-79
2022/04/10 02:24:13;;;;;;;7.00;3.85;;;3.70;1.00;;;;;;6102992;23;20237;-79
2022/04/10 02:26:50;;;;;;;5.85;3.42;;;3.60;1.00;;;;;;6137741;23;20283;-78
2022/04/10 02:29:20;;;;;;;7.82;4.43;;;3.60;1.00;;;;;;6145874;23;20231;-77
2022/04/10 02:31:52;;;;;;;7.78;4.07;;;3.60;1.00;;;;;;6133462;23;20218;-78
2022/04/10 02:34:19;;;;;;;8.52;4.38;;;3.50;1.00;;;;;;6141531;23;20219;-77
2022/04/10 02:37:01;;;;;;;5.78;4.18;;;3.50;1.00;;;;;;6130797;23;20222;-78
2022/04/10 02:39:31;;;;;;;6.10;4.00;;;3.50;1.00;;;;;;6124425;23;20231;-79
2022/04/10 02:42:10;;;;;;;7.13;4.47;;;3.60;1.00;;;;;;6136675;23;20234;-76
2022/04/10 02:44:40;;;;;;;8.13;4.55;;;3.60;1.00;;;;;;6111290;23;20211;-77
2022/04/10 02:47:09;;;;;;;7.10;4.45;;;3.50;1.00;;;;;;6165797;23;20321;-78
2022/04/10 02:49:40;;;;;;;5.93;4.57;;;3.50;1.00;;;;;;6163410;23;20203;-77
2022/04/10 02:52:08;;;;;;;9.07;5.00;;;3.60;1.00;;;;;;6156988;23;20211;-80
2022/04/10 02:55:00;;;;;;;6.57;5.00;;;3.60;1.00;;;;;;6144747;23;20210;-87
2022/04/10 02:57:40;;;;;;;6.47;4.57;;;3.70;1.00;;;;;;6172495;23;20199;-89
2022/04/10 03:00:10;;;;;;;10.15;5.63;;;3.70;1.00;;;;;;6159563;23;20209;-90
2022/04/10 03:02:49;;;;;;;9.10;5.05;;;3.70;1.00;;;;;;6163731;23;20675;-88
2022/04/10 03:05:31;;;;;;;5.97;4.60;;;3.80;1.00;;;;;;6170075;23;20230;-89
2022/04/10 03:08:17;;;;;;;7.38;6.00;;;3.70;1.00;;;;;;6167976;23;20206;-86
2022/04/10 03:11:10;;;;;;;7.72;4.47;;;3.80;1.00;;;;;;6132841;23;20215;-90
2022/04/10 03:13:53;;;;;;;5.88;4.88;;;3.80;1.00;;;;;;6165049;23;20211;-88
2022/04/10 03:16:21;;;;;;;10.18;5.20;;;3.80;1.00;;;;;;6166798;23;20499;-89
2022/04/10 03:18:57;;;;;;;7.18;4.72;;;3.80;1.00;;;;;;6165071;23;20211;-87
2022/04/10 03:21:51;;;;;;;;;;;;;;;;;;;;;
2022/04/10 03:24:22;;;;;;;9.15;4.82;;;3.80;1.00;;;;;;6167137;23;49499;-87
2022/04/10 03:26:49;;;;;;;6.68;4.22;;;3.80;1.00;;;;;;6156863;23;20215;-88
2022/04/10 03:29:28;;;;;;;9.93;5.00;;;3.80;1.00;;;;;;6164439;23;20703;-87
2022/04/10 03:32:10;;;;;;;10.30;4.68;;;3.80;1.00;;;;;;6159121;23;20211;-87
2022/04/10 03:37:32;;;;;;;9.85;4.53;;;3.80;1.00;;;;;;6116396;23;21121;-88
2022/04/10 03:40:19;;;;;;;8.18;4.10;;;3.80;1.00;;;;;;6125436;23;20218;-90
2022/04/10 03:42:51;;;;;;;6.82;4.75;;;3.80;1.00;;;;;;6150951;23;20265;-87
2022/04/10 03:45:29;;;;;;;8.82;4.10;;;3.80;1.00;;;;;;6171892;23;20206;-89
2022/04/10 03:48:20;;;;;;;8.57;3.85;;;3.90;1.00;;;;;;6138336;23;20210;-91
2022/04/10 03:50:52;;;;;;;7.28;4.32;;;3.90;1.00;;;;;;6135472;23;20211;-89
2022/04/10 03:56:20;;;;;;;7.85;5.00;;;4.00;1.00;;;;;;6111674;23;20214;-89
2022/04/10 03:58:51;;;;;;;7.00;4.28;;;3.90;1.00;;;;;;6134525;23;20233;-90
2022/04/10 04:15:41;;;;;;;8.40;4.28;;;3.80;1.00;;;;;;6145028;23;20212;-80
2022/04/10 04:18:08;;;;;;;6.10;4.45;;;3.90;1.00;;;;;;6125517;23;20208;-80
2022/04/10 04:20:41;;;;;;;7.45;4.68;;;3.90;1.00;;;;;;6108895;23;20207;-79
2022/04/10 04:23:11;;;;;;;6.18;3.90;;;3.90;1.00;;;;;;6131060;23;20255;-77
2022/04/10 04:25:41;;;;;;;7.18;3.85;;;3.90;1.00;;;;;;6127680;23;20204;-78
2022/04/10 04:28:25;;;;;;;10.55;4.00;;;3.90;1.00;;;;;;6133222;23;20234;-78
2022/04/10 04:31:10;;;;;;;10.38;4.20;;;3.90;1.00;;;;;;6105197;23;20341;-78
2022/04/10 04:33:40;;;;;;;9.60;4.18;;;3.90;1.00;;;;;;6123169;23;20230;-77
2022/04/10 04:36:19;;;;;;;7.28;4.20;;;4.00;1.00;;;;;;6132426;23;20223;-77
2022/04/10 04:39:01;;;;;;;6.20;4.03;;;4.00;1.00;;;;;;6101154;23;20412;-78
2022/04/10 04:41:30;;;;;;;8.77;4.10;;;4.10;1.00;;;;;;6091914;23;20216;-78
2022/04/10 04:44:12;;;;;;;7.72;4.30;;;4.00;1.00;;;;;;6099620;23;20208;-79
2022/04/10 04:46:50;;;;;;;8.10;5.43;;;4.00;1.00;;;;;;6100772;23;20260;-79
2022/04/10 04:49:17;;;;;;;7.82;4.03;;;4.00;1.00;;;;;;6128156;23;20218;-79
2022/04/10 04:51:51;;;;;;;7.85;3.67;;;4.00;1.00;;;;;;6091392;23;20217;-80
2022/04/10 04:54:21;;;;;;;8.52;3.80;;;4.00;1.00;;;;;;6095603;23;20202;-78
2022/04/10 04:56:51;;;;;;;5.70;3.78;;;4.10;1.00;;;;;;6115037;23;20273;-79
2022/04/10 04:59:19;;;;;;;8.50;4.10;;;4.10;1.00;;;;;;6096771;23;20204;-77
2022/04/10 05:01:50;;;;;;;9.38;3.70;;;4.10;1.00;;;;;;6092178;23;20213;-78
2022/04/10 05:04:16;;;;;;;7.57;3.80;;;4.10;1.00;;;;;;6122750;23;20247;-79
2022/04/10 05:06:51;;;;;;;5.95;4.47;;;4.10;1.00;;;;;;6120295;23;20234;-77
2022/04/10 05:09:18;;;;;;;8.00;4.20;;;4.20;1.00;;;;;;6102752;23;20215;-79
2022/04/10 05:12:00;;;;;;;13.93;5.55;;;4.20;1.00;;;;;;6100971;23;20324;-78
2022/04/10 05:14:30;;;;;;;8.43;4.20;;;4.20;1.00;;;;;;6095999;23;20196;-77
2022/04/10 05:17:02;;;;;;;11.40;4.68;;;4.10;1.00;;;;;;6119245;23;20203;-78
2022/04/10 05:19:32;;;;;;;11.05;4.68;;;4.10;1.00;;;;;;6131396;23;20983;-78
2022/04/10 05:22:02;;;;;;;6.20;3.00;;;4.10;1.00;;;;;;6125073;23;20243;-77
2022/04/10 05:24:31;;;;;;;8.88;4.35;;;4.20;1.00;;;;;;6127003;23;20298;-78
2022/04/10 05:27:01;;;;;;;9.00;3.95;;;4.30;1.00;;;;;;6138389;23;20226;-78
2022/04/10 05:29:52;;;;;;;;;;;;;;;;;;;;;
2022/04/10 05:32:31;;;;;;;8.75;4.30;;;4.40;1.00;;;;;;6105193;23;50977;-78
2022/04/10 05:35:01;;;;;;;6.07;3.80;;;4.40;1.00;;;;;;6132919;23;20243;-78
2022/04/10 05:37:38;;;;;;;6.97;3.30;;;4.40;1.00;;;;;;6126434;23;20254;-77
2022/04/10 05:40:12;;;;;;;5.25;3.53;;;4.50;1.00;;;;;;6132155;23;20270;-78
2022/04/10 05:42:41;;;;;;;10.20;3.80;;;4.50;1.00;;;;;;6130123;23;20216;-79
2022/04/10 05:45:11;;;;;;;6.32;3.72;;;4.50;1.00;;;;;;6133744;23;20220;-79
2022/04/10 05:47:41;;;;;;;9.38;4.25;;;4.50;1.00;;;;;;6130815;23;20215;-79
2022/04/10 05:50:22;;;;;;;10.98;4.00;;;4.50;1.00;;;;;;6133461;23;20234;-79
2022/04/10 05:52:52;;;;;;;9.02;4.47;;;4.50;1.00;;;;;;6132158;23;20218;-78
2022/04/10 05:55:19;;;;;;;10.48;4.15;;;4.60;1.00;;;;;;6131855;23;20192;-79
2022/04/10 05:57:52;;;;;;;16.13;5.70;;;4.60;1.00;;;;;;6127604;23;20216;-77
2022/04/10 06:00:23;;;;;;;8.90;5.15;;;4.60;1.00;;;;;;6123766;23;20230;-79
2022/04/10 06:02:52;;;;;;;9.30;4.45;;;4.60;1.00;;;;;;6123360;23;20238;-80
2022/04/10 06:05:30;;;;;;;9.77;4.70;;;4.60;1.00;;;;;;6136355;23;20258;-79
2022/04/10 06:08:02;;;;;;;9.77;3.90;;;4.50;1.00;;;;;;6130025;23;20222;-78
2022/04/10 06:10:29;;;;;;;9.05;4.40;;;4.50;1.00;;;;;;6126666;23;20219;-77
2022/04/10 06:13:12;;;;;;;8.85;3.88;;;4.60;1.00;;;;;;6137405;23;20219;-78
2022/04/10 06:16:01;;;;;;;6.00;3.20;;;4.70;1.00;;;;;;6127971;23;20207;-78
2022/04/10 06:18:59;;;;;;;7.72;4.10;;;4.90;1.00;;;;;;6123470;23;20760;-79
2022/04/10 06:21:29;;;;;;;7.57;3.70;;;4.90;1.00;;;;;;6114634;23;20207;-78
2022/04/10 06:24:21;;;;;;;8.52;4.80;;;4.90;1.00;;;;;;6121271;23;20287;-82
2022/04/10 06:26:51;;;;;;;5.95;2.95;;;5.00;1.00;;;;;;6096175;23;21913;-78
2022/04/10 06:29:20;;;;;;;6.97;3.28;;;5.10;1.00;;;;;;6115152;23;20238;-77
2022/04/10 06:31:49;;;;;;;10.00;4.05;;;5.10;1.00;;;;;;6102823;23;20215;-79
2022/04/10 06:34:20;;;;;;;7.45;3.70;;;5.10;1.00;;;;;;6097010;23;20263;-80
2022/04/10 06:36:50;;;;;;;14.32;4.10;;;5.20;1.00;;;;;;6107129;23;20195;-79
2022/04/10 06:39:20;;;;;;;6.38;3.65;;;5.30;1.00;;;;;;6118371;23;20226;-78
2022/04/10 06:41:50;;;;;;;6.90;3.50;;;5.30;1.00;;;;;;6137964;23;20207;-80
2022/04/10 06:44:21;;;;;;;8.52;3.72;;;5.30;1.00;;;;;;6124755;23;20215;-79
2022/04/10 06:46:52;;;;;;;6.53;3.63;;;5.40;1.00;;;;;;6128281;23;20306;-79
2022/04/10 06:49:31;;;;;;;8.13;4.05;;;5.50;1.00;;;;;;6099500;23;20341;-79
2022/04/10 06:52:38;;;;;;;7.55;4.32;;;5.60;1.00;;;;;;6112697;23;20333;-77
2022/04/10 06:58:23;;;;;;;7.40;4.20;;;5.60;1.00;;;;;;5977942;23;20219;-78
2022/04/10 07:01:11;;;;;;;6.30;3.05;;;5.70;1.00;;;;;;6125236;23;20219;-78
2022/04/10 07:03:41;;;;;;;8.13;3.70;;;5.60;1.00;;;;;;6138945;23;20198;-78
2022/04/10 07:06:12;;;;;;;7.30;3.80;;;5.60;1.00;;;;;;6096465;23;20218;-77
2022/04/10 07:09:21;;;;;;;6.75;3.72;;;5.60;1.00;;;;;;6095835;23;20232;-77
2022/04/10 07:11:50;;;;;;;12.40;4.40;;;5.80;1.00;;;;;;6015208;23;20297;-78
2022/04/10 07:14:25;;;;;;;7.15;4.05;;;5.90;1.00;;;;;;6124521;23;20215;-78
2022/04/10 07:16:52;;;;;;;7.82;4.15;;;6.00;1.00;;;;;;6113995;23;20215;-79
2022/04/10 07:19:19;;;;;;;5.95;3.10;;;6.10;1.00;;;;;;6144360;23;20503;-78
2022/04/10 07:24:51;;;;;;;11.00;5.38;;;6.30;1.00;;;;;;6102774;23;20353;-76
2022/04/10 07:27:19;;;;;;;6.60;3.28;;;6.20;1.00;;;;;;6143631;23;20206;-78
2022/04/10 07:29:48;;;;;;;9.25;3.47;;;6.10;1.00;;;;;;6124331;23;20219;-79
2022/04/10 07:32:14;;;;;;;5.43;3.00;;;6.10;1.00;;;;;;6124425;23;20216;-79
2022/04/10 07:34:41;;;;;;;8.25;3.42;;;6.00;1.00;;;;;;6118220;23;20271;-79
2022/04/10 07:37:11;;;;;;;7.50;3.70;;;6.00;1.00;;;;;;6127520;23;20222;-80
2022/04/10 07:39:41;;;;;;;7.57;2.83;;;6.20;1.00;;;;;;6121707;23;20200;-79
2022/04/10 07:42:10;;;;;;;6.82;3.35;;;6.40;1.00;;;;;;6133952;23;20200;-79
2022/04/10 07:44:46;;;;;;;8.30;4.30;;;6.50;1.00;;;;;;6126680;23;20758;-77
2022/04/10 07:47:31;;;;;;;5.53;2.72;;;6.60;1.00;;;;;;6132250;23;20203;-76
2022/04/10 07:50:01;;;;;;;6.85;3.35;;;6.80;1.00;;;;;;6068277;23;20230;-78
2022/04/10 07:55:32;;;;;;;6.80;2.92;;;6.70;1.00;;;;;;6071053;23;20328;-79
2022/04/10 07:58:02;;;;;;;6.90;3.30;;;6.50;1.00;;;;;;6129754;23;20294;-75
2022/04/10 08:00:32;;;;;;;6.32;2.75;;;6.40;1.00;;;;;;6112995;23;20219;-79
2022/04/10 08:06:19;;;;;;;9.20;3.05;;;6.70;1.00;;;;;;6071224;23;20219;-78
2022/04/10 08:09:09;;;;;;;9.80;3.65;;;6.80;1.00;;;;;;6103614;23;20222;-79
2022/04/10 08:11:51;;;;;;;5.47;3.47;;;6.80;1.00;;;;;;6113414;23;20223;-78
2022/04/10 08:14:20;;;;;;;6.30;3.25;;;6.80;1.00;;;;;;6131182;23;21344;-80
2022/04/10 08:17:02;;;;;;;6.15;2.92;;;6.70;1.00;;;;;;6111154;23;20235;-80
2022/04/10 08:19:41;;;;;;;8.73;3.75;;;6.60;1.00;;;;;;6119122;23;20215;-79
2022/04/10 08:22:23;;;;;;;5.20;2.67;;;6.70;1.00;;;;;;6123229;23;20230;-80
2022/04/10 08:25:00;;;;;;;7.47;3.72;;;6.70;1.00;;;;;;6109520;23;20230;-79
2022/04/10 08:27:27;;;;;;;12.88;3.88;;;6.80;1.00;;;;;;6129118;23;20306;-80
2022/04/10 08:30:12;;;;;;;12.23;4.55;;;7.00;1.00;;;;;;6126289;23;20271;-78
2022/04/10 08:32:48;;;;;;;8.40;3.80;;;7.10;1.00;;;;;;6125004;23;20846;-80
2022/04/10 08:35:21;;;;;;;7.00;3.67;;;7.30;1.00;;;;;;6122795;23;20258;-80
2022/04/10 08:38:01;;;;;;;7.15;4.72;;;7.50;1.00;;;;;;6124471;23;20217;-79
2022/04/10 08:41:01;;;;;;;8.30;3.35;;;7.80;1.00;;;;;;6135634;23;20211;-80
2022/04/10 08:43:32;;;;;;;6.47;2.95;;;8.10;1.00;;;;;;6124343;23;20430;-80
2022/04/10 08:46:01;;;;;;;7.35;3.33;;;8.10;1.00;;;;;;6129796;23;20219;-81
2022/04/10 08:48:42;;;;;;;9.32;4.40;;;8.30;1.00;;;;;;6135438;23;20217;-77
2022/04/10 08:51:23;;;;;;;8.73;3.33;;;8.50;1.00;;;;;;6109773;23;20242;-76
2022/04/10 08:54:41;;;;;;;;;;;;;;;;;;;;;
2022/04/10 09:04:31;;;;;;;6.18;2.70;;;9.10;1.00;;;;;;6052833;23;20223;-78
2022/04/10 09:07:00;;;;;;;8.82;2.83;;;8.90;1.00;;;;;;6045744;23;20266;-79
2022/04/10 09:10:11;;;;;;;7.70;3.10;;;8.60;1.00;;;;;;6047096;23;20220;-80
2022/04/10 09:13:01;;;;;;;8.43;3.95;;;8.50;1.00;;;;;;6043266;23;20228;-79
2022/04/10 09:19:16;;;;;;;7.28;3.33;;;7.20;1.00;;;;;;5917839;24;20231;-81
2022/04/10 14:55:02;;;;;;;4.10;1.42;;;9.00;1.00;;;;;;6316430;22;20203;-80
2022/04/10 14:58:10;;;;;;;5.10;1.90;;;9.00;1.00;;;;;;6348350;22;20206;-81
2022/04/10 15:03:51;;;;;;;4.07;1.98;;;9.00;1.00;;;;;;6120883;22;20230;-79
2022/04/10 15:06:53;;;;;;;4.03;2.00;;;9.00;1.00;;;;;;6280986;22;20208;-79
2022/04/10 15:16:14;;;;;;;3.67;1.85;;;8.90;1.00;;;;;;6268551;22;20207;-77
2022/04/10 15:29:12;;;;;;;15.55;6.93;;;8.90;1.00;;;;;;6217057;22;20225;-78
2022/04/10 15:31:53;;;;;;;4.20;2.17;;;8.90;1.00;;;;;;6182508;23;20189;-79
2022/04/10 15:40:27;;;;;;;3.22;1.55;;;9.20;1.00;;;;;;6286114;22;20300;-79
2022/04/10 15:46:45;;;;;;;;;;;;;;;;;;;;;
2022/04/10 15:52:43;;;;;;;3.70;1.73;;;9.50;1.00;;;;;;6160404;23;21310;-78
2022/04/10 16:15:13;;;;;;;3.08;1.83;;;8.20;1.00;;;;;;6162932;22;20220;-79
2022/04/10 16:30:23;;;;;;;4.72;2.35;;;7.80;1.00;;;;;;6231469;22;20218;-78
2022/04/10 16:33:07;;;;;;;2.95;1.85;;;7.80;1.00;;;;;;6269892;22;20217;-79
2022/04/10 16:35:44;;;;;;;2.90;1.70;;;7.80;1.00;;;;;;6306656;22;20235;-79
2022/04/10 17:16:26;;;;;;;4.55;2.10;;;7.50;1.00;;;;;;6076265;23;20200;-78
2022/04/10 17:28:26;;;;;;;;;;;;;;;;;;;;;
2022/04/10 17:31:14;;;;;;;4.88;2.30;;;6.90;1.00;;;;;;6199025;22;41852;-79
2022/04/10 17:34:03;;;;;;;6.97;3.25;;;7.00;1.00;;;;;;6198832;22;20225;-79
2022/04/10 17:40:23;;;;;;;4.95;2.70;;;6.70;1.00;;;;;;6162634;23;20230;-80
2022/04/10 17:46:36;;;;;;;4.25;1.52;;;6.30;1.00;;;;;;6179272;22;20217;-80
2022/04/10 17:49:14;;;;;;;2.85;1.60;;;6.20;1.00;;;;;;6195324;22;20248;-79
2022/04/10 18:00:55;;;;;;;5.18;3.00;;;5.70;1.00;;;;;;6207998;22;20213;-76
2022/04/10 18:04:04;;;;;;;;;;;;;;;;;;;;;
2022/04/10 19:22:53;;;;;;;5.40;3.37;;;5.60;1.00;;;;;;5559440;22;15142701;-80
2022/04/10 19:25:34;;;;;;;5.22;3.50;;;5.60;1.00;;;;;;6161679;22;20213;-82
2022/04/10 19:28:27;;;;;;;6.38;3.03;;;5.50;1.00;;;;;;6232258;22;20304;-82
2022/04/10 19:33:55;;;;;;;6.60;4.10;;;5.50;1.00;;;;;;6173050;22;20292;-80
2022/04/10 19:36:25;;;;;;;5.45;3.10;;;5.50;1.00;;;;;;6197453;22;21255;-78
2022/04/10 19:38:55;;;;;;;5.13;3.40;;;5.50;1.00;;;;;;6201888;22;20253;-78
2022/04/10 19:41:26;;;;;;;4.65;3.15;;;5.60;1.00;;;;;;6244714;22;20212;-81
2022/04/10 19:43:54;;;;;;;4.72;3.50;;;5.60;1.00;;;;;;6213829;22;20296;-81
2022/04/10 19:46:35;;;;;;;5.93;3.67;;;5.70;1.00;;;;;;6244387;22;20228;-79
2022/04/10 19:49:05;;;;;;;6.60;3.50;;;5.60;1.00;;;;;;6263806;22;20212;-81
2022/04/10 19:51:35;;;;;;;7.30;2.90;;;5.70;1.00;;;;;;6293986;22;20208;-79
2022/04/10 19:54:06;;;;;;;6.80;3.35;;;5.70;1.00;;;;;;6269536;22;20205;-80
2022/04/10 19:56:46;;;;;;;5.43;3.33;;;5.80;1.00;;;;;;6252996;22;20260;-78
2022/04/10 19:59:17;;;;;;;5.00;3.10;;;5.90;1.00;;;;;;6284260;22;20208;-81
2022/04/10 20:01:53;;;;;;;6.60;3.40;;;5.90;1.00;;;;;;6244427;22;20204;-81
2022/04/10 20:04:34;;;;;;;6.05;3.25;;;6.00;1.00;;;;;;6232367;22;20314;-80
2022/04/10 20:11:06;;;;;;;6.85;3.00;;;6.10;1.00;;;;;;6106963;23;20213;-79
2022/04/10 20:13:46;;;;;;;4.82;2.97;;;6.20;1.00;;;;;;6138922;23;20221;-79
2022/04/10 20:16:16;;;;;;;4.10;2.10;;;6.20;1.00;;;;;;6128437;23;20214;-78
2022/04/10 20:18:46;;;;;;;7.13;3.05;;;6.30;1.00;;;;;;6145827;23;20199;-80
2022/04/10 20:21:16;;;;;;;6.05;2.65;;;6.40;1.00;;;;;;6187946;23;20257;-79
2022/04/10 20:23:46;;;;;;;5.70;2.33;;;6.40;1.00;;;;;;6169453;23;20195;-77
2022/04/10 20:26:16;;;;;;;2.85;2.28;;;6.50;1.00;;;;;;6203408;22;20220;-79
2022/04/10 20:28:56;;;;;;;4.80;2.50;;;6.50;1.00;;;;;;6215325;22;20216;-78
2022/04/10 20:31:35;;;;;;;6.00;2.33;;;6.60;1.00;;;;;;6279872;22;20196;-79
2022/04/10 20:34:05;;;;;;;4.55;2.85;;;6.60;1.00;;;;;;6243898;22;20237;-80
2022/04/10 20:36:56;;;;;;;5.47;3.35;;;6.70;1.00;;;;;;6260348;22;20212;-77
2022/04/10 20:39:36;;;;;;;5.18;2.30;;;6.70;1.00;;;;;;6271179;22;20223;-77
2022/04/10 20:42:36;;;;;;;5.70;2.90;;;6.70;1.00;;;;;;6245729;22;20216;-80
2022/04/10 20:48:24;;;;;;;6.70;2.80;;;6.70;1.00;;;;;;6269444;22;20354;-80
2022/04/10 20:51:02;;;;;;;8.15;4.65;;;6.70;1.00;;;;;;6276172;22;20311;-78
2022/04/10 20:53:56;;;;;;;5.95;3.17;;;6.70;1.00;;;;;;6254882;22;20221;-76
2022/04/10 20:56:46;;;;;;;;;;;;;;;;;;;;;
2022/04/10 20:59:15;;;;;;;5.72;2.85;;;6.70;1.00;;;;;;6202062;22;49807;-78
2022/04/10 21:04:55;;;;;;;7.15;3.00;;;6.80;1.00;;;;;;6207502;22;20226;-78
2022/04/10 21:07:25;;;;;;;6.35;2.70;;;6.80;1.00;;;;;;6196588;22;20218;-78
2022/04/10 21:09:55;;;;;;;8.77;3.35;;;6.70;1.00;;;;;;6170669;22;20211;-81
2022/04/10 21:12:25;;;;;;;5.80;2.72;;;6.70;1.00;;;;;;6193799;22;20201;-80
2022/04/10 21:14:55;;;;;;;4.20;3.30;;;6.60;1.00;;;;;;6211108;22;20345;-79
2022/04/10 21:17:44;;;;;;;5.10;2.78;;;6.70;1.00;;;;;;6208042;22;20198;-78
2022/04/10 21:20:14;;;;;;;6.82;3.05;;;6.70;1.00;;;;;;6217435;22;20205;-79
2022/04/10 21:22:46;;;;;;;4.97;2.83;;;6.60;1.00;;;;;;6220984;22;20219;-79
2022/04/10 21:25:15;;;;;;;5.45;2.40;;;6.50;1.00;;;;;;6258172;22;20208;-78
2022/04/10 21:27:45;;;;;;;11.05;2.58;;;6.60;1.00;;;;;;6224965;22;20296;-80
2022/04/10 21:30:14;;;;;;;4.97;2.67;;;6.50;1.00;;;;;;6207941;22;20228;-80
2022/04/10 21:32:45;;;;;;;4.47;2.80;;;6.50;1.00;;;;;;6226506;22;20213;-80
2022/04/10 21:35:14;;;;;;;4.20;1.80;;;6.60;1.00;;;;;;6246318;22;20360;-81
2022/04/10 21:37:45;;;;;;;4.28;2.67;;;6.50;1.00;;;;;;6189237;22;20213;-80
2022/04/10 21:40:14;;;;;;;5.28;2.55;;;6.50;1.00;;;;;;6224897;22;21617;-79
2022/04/10 21:42:41;;;;;;;5.20;2.30;;;6.60;1.00;;;;;;6231623;22;20221;-78
2022/04/10 21:45:14;;;;;;;5.18;2.30;;;6.60;1.00;;;;;;6225113;22;20210;-77
2022/04/10 21:47:44;;;;;;;5.05;2.35;;;6.60;1.00;;;;;;6215488;22;20988;-78
2022/04/10 21:50:16;;;;;;;6.25;2.05;;;6.60;1.00;;;;;;6219306;22;20208;-80
2022/04/10 21:52:45;;;;;;;3.47;1.60;;;6.60;1.00;;;;;;6205361;22;20205;-81
2022/04/10 21:55:14;;;;;;;4.15;1.80;;;6.50;1.00;;;;;;6229158;22;20296;-80
2022/04/10 21:57:47;;;;;;;8.25;2.42;;;6.50;1.00;;;;;;6195420;22;20289;-78
2022/04/10 22:00:25;;;;;;;4.00;1.92;;;6.50;1.00;;;;;;6201379;22;20228;-79
2022/04/10 22:02:56;;;;;;;6.13;2.10;;;6.50;1.00;;;;;;6192985;22;20233;-80
2022/04/10 22:05:25;;;;;;;4.55;2.03;;;6.50;1.00;;;;;;6222939;22;20686;-79
2022/04/10 22:07:55;;;;;;;5.15;1.90;;;6.50;1.00;;;;;;6202922;22;20201;-80
2022/04/10 22:10:33;;;;;;;4.32;2.00;;;6.40;1.00;;;;;;6192937;22;20206;-79
2022/04/10 22:13:15;;;;;;;3.20;1.60;;;6.40;1.00;;;;;;6187357;22;20223;-80
2022/04/10 22:15:45;;;;;;;6.97;2.70;;;6.40;1.00;;;;;;6186008;22;20244;-81
2022/04/10 22:18:16;;;;;;;5.78;1.65;;;6.40;1.00;;;;;;6220082;22;20221;-79
2022/04/10 22:20:46;;;;;;;6.70;1.65;;;6.40;1.00;;;;;;6213053;22;20213;-80
2022/04/10 22:23:16;;;;;;;5.20;2.35;;;6.40;1.00;;;;;;6207955;22;20248;-79
2022/04/10 22:25:44;;;;;;;5.30;2.10;;;6.40;1.00;;;;;;6209772;22;20214;-80
2022/04/10 22:28:15;;;;;;;4.32;2.10;;;6.40;1.00;;;;;;6240442;22;20208;-81
2022/04/10 22:30:56;;;;;;;6.03;1.58;;;6.40;1.00;;;;;;6202846;22;20232;-80
2022/04/10 22:33:25;;;;;;;4.80;2.15;;;6.40;1.00;;;;;;6196904;22;20358;-80
2022/04/10 22:35:55;;;;;;;4.95;1.73;;;6.40;1.00;;;;;;6236429;22;20236;-81
2022/04/10 22:38:25;;;;;;;8.20;4.85;;;6.40;1.00;;;;;;6228993;22;20228;-80
2022/04/10 22:40:55;;;;;;;4.90;1.60;;;6.30;1.00;;;;;;6204427;22;20215;-80
2022/04/10 22:43:33;;;;;;;4.60;1.70;;;6.30;1.00;;;;;;6203925;22;20211;-78
2022/04/10 22:46:05;;;;;;;4.05;2.30;;;6.30;1.00;;;;;;6215384;22;21167;-80
2022/04/10 22:48:37;;;;;;;4.78;1.60;;;6.30;1.00;;;;;;6207197;22;20206;-79
2022/04/10 22:51:07;;;;;;;3.65;1.73;;;6.20;1.00;;;;;;6198931;23;20209;-80
2022/04/10 22:53:36;;;;;;;6.22;1.60;;;6.20;1.00;;;;;;6203546;22;20312;-79
2022/04/10 22:56:06;;;;;;;4.68;1.75;;;6.20;1.00;;;;;;6198963;22;20205;-81
2022/04/10 22:58:36;;;;;;;6.28;1.60;;;6.20;1.00;;;;;;6157452;22;20226;-81
2022/04/10 23:01:05;;;;;;;3.60;1.50;;;6.10;1.00;;;;;;6223258;22;20214;-78
2022/04/10 23:03:48;;;;;;;;;;;;;;;;;;;;;
2022/04/10 23:06:16;;;;;;;4.82;2.40;;;6.10;1.00;;;;;;6228210;22;49022;-80
2022/04/10 23:08:46;;;;;;;5.28;1.90;;;6.00;1.00;;;;;;6263235;22;20625;-79
2022/04/10 23:11:16;;;;;;;4.20;1.83;;;6.00;1.00;;;;;;6229674;22;20213;-80
2022/04/10 23:13:46;;;;;;;3.50;1.27;;;6.00;1.00;;;;;;6176402;22;20193;-79
2022/04/10 23:16:16;;;;;;;5.40;2.17;;;6.00;1.00;;;;;;6188739;23;20225;-78
2022/04/10 23:19:05;;;;;;;5.65;1.75;;;6.00;1.00;;;;;;6215416;22;20221;-81
2022/04/10 23:21:36;;;;;;;4.65;1.48;;;5.90;1.00;;;;;;6175466;22;20236;-80
2022/04/10 23:24:07;;;;;;;4.28;2.60;;;5.90;1.00;;;;;;6226545;22;20189;-80
2022/04/10 23:26:37;;;;;;;3.80;1.58;;;5.90;1.00;;;;;;6224295;22;20556;-80
2022/04/10 23:29:04;;;;;;;4.90;1.98;;;5.90;1.00;;;;;;6207686;22;20393;-82
2022/04/10 23:31:44;;;;;;;5.63;1.85;;;5.90;1.00;;;;;;6211750;22;20287;-80
2022/04/10 23:34:16;;;;;;;5.70;1.73;;;5.90;1.00;;;;;;6228994;22;20189;-80
2022/04/10 23:36:55;;;;;;;3.33;1.33;;;5.90;1.00;;;;;;6198682;22;20213;-80
2022/04/10 23:39:25;;;;;;;3.92;1.45;;;5.90;1.00;;;;;;6247045;22;20220;-80
2022/04/10 23:41:55;;;;;;;4.05;1.83;;;5.80;1.00;;;;;;6248096;22;20212;-80
2022/04/10 23:44:24;;;;;;;4.28;1.92;;;5.90;1.00;;;;;;6232716;22;20217;-80
2022/04/10 23:46:56;;;;;;;4.75;2.10;;;5.80;1.00;;;;;;6201181;22;20439;-80
2022/04/10 23:49:26;;;;;;;4.65;1.85;;;5.80;1.00;;;;;;6218514;22;20219;-80
2022/04/10 23:52:06;;;;;;;;;;;;;;;;;;;;;
2022/04/10 23:54:35;;;;;;;6.82;1.90;;;5.80;1.00;;;;;;6176536;23;41416;-81
2022/04/10 23:57:05;;;;;;;5.97;1.90;;;5.80;1.00;;;;;;6202739;22;20213;-80